Time;durP1;ratioP1;P1;durP2;ratioP2;P2;SDS_P1;SDS_P2;PMS_P1;PMS_P2;Temp;Humidity;BMP_temperature;BMP_pressure;BME280_temperature;BME280_humidity;BME280_pressure;Samples;Min_cycle;Max_cycle;Signal;HPM_P1;HPM_P2
2022/12/11 00:00:56;;;;;;;11.77;5.13;;;;;;;-2.03;94.04;100655.22;6121633;28;20028;-69
2022/12/11 00:03:52;;;;;;;15.10;5.77;;;;;;;-2.11;94.41;100631.34;6120654;28;20301;-68
2022/12/11 00:06:49;;;;;;;21.37;6.30;;;;;;;-2.01;95.50;100663.81;6121407;28;20485;-69
2022/12/11 00:09:45;;;;;;;15.55;6.28;;;;;;;-2.09;95.48;100650.31;6121459;28;20462;-67
2022/12/11 00:12:40;;;;;;;25.47;8.40;;;;;;;-2.15;95.74;100660.97;6120348;28;20037;-70
2022/12/11 00:15:37;;;;;;;17.23;6.47;;;;;;;-2.22;95.35;100667.34;6121359;28;20039;-68
2022/12/11 00:18:32;;;;;;;17.15;7.20;;;;;;;-2.22;94.98;100662.13;6120484;28;20392;-69
2022/12/11 00:21:27;;;;;;;16.40;5.10;;;;;;;-2.15;95.63;100660.97;6107789;28;20025;-68
2022/12/11 00:24:22;;;;;;;17.90;7.03;;;;;;;-2.13;94.96;100659.16;6120540;28;20713;-69
2022/12/11 00:27:18;;;;;;;15.60;6.17;;;;;;;-2.16;94.22;100660.13;6121388;28;20515;-67
2022/12/11 00:30:13;;;;;;;19.80;5.77;;;;;;;-2.19;94.28;100656.81;6120599;28;20024;-67
2022/12/11 00:33:09;;;;;;;13.03;5.30;;;;;;;-2.20;94.54;100650.78;6120519;28;20025;-70
2022/12/11 00:36:13;;;;;;;21.50;8.77;;;;;;;-2.20;94.42;100649.97;6121143;28;20509;-69
2022/12/11 00:39:08;;;;;;;19.15;6.43;;;;;;;-2.24;95.18;100638.00;6118597;28;20033;-68
2022/12/11 00:42:05;;;;;;;18.35;7.40;;;;;;;-2.20;95.64;100627.41;6119523;28;20075;-69
2022/12/11 00:45:00;;;;;;;16.67;6.47;;;;;;;-2.11;95.45;100644.34;6120774;28;20437;-68
2022/12/11 00:47:56;;;;;;;18.37;5.70;;;;;;;-2.17;95.29;100644.59;6120859;28;20037;-67
2022/12/11 00:50:52;;;;;;;21.35;7.47;;;;;;;-2.20;95.12;100649.97;6103002;28;20174;-68
2022/12/11 00:53:48;;;;;;;21.67;6.90;;;;;;;-2.24;94.96;100643.19;6120215;28;20036;-67
2022/12/11 00:56:43;;;;;;;21.93;7.33;;;;;;;-2.29;95.09;100646.00;6120262;28;20270;-69
2022/12/11 00:59:38;;;;;;;19.93;6.63;;;;;;;-2.18;95.48;100656.75;6120666;28;20348;-68
2022/12/11 01:02:34;;;;;;;20.60;7.10;;;;;;;-2.16;96.15;100654.09;6119921;28;20060;-69
2022/12/11 01:05:29;;;;;;;21.03;6.27;;;;;;;-2.20;95.72;100650.78;6120574;28;20071;-69
2022/12/11 01:08:24;;;;;;;18.25;6.47;;;;;;;-2.30;96.37;100646.06;6120546;28;20041;-68
2022/12/11 01:11:20;;;;;;;23.70;6.82;;;;;;;-2.22;96.51;100651.75;6120885;28;20040;-69
2022/12/11 01:14:15;;;;;;;20.35;7.85;;;;;;;-2.15;96.34;100658.38;6119994;28;20060;-69
2022/12/11 01:17:10;;;;;;;24.43;9.63;;;;;;;-1.99;96.64;100662.84;6120167;28;20037;-67
2022/12/11 01:20:06;;;;;;;18.67;6.77;;;;;;;-2.11;96.94;100670.31;6120503;28;20028;-68
2022/12/11 01:23:01;;;;;;;19.48;6.55;;;;;;;-2.25;96.53;100662.28;6119724;28;20033;-68
2022/12/11 01:26:03;;;;;;;22.90;6.63;;;;;;;-2.18;96.77;100668.91;6120253;28;20093;-68
2022/12/11 01:28:59;;;;;;;25.08;7.22;;;;;;;-2.15;96.54;100653.19;6120243;28;20115;-68
2022/12/11 01:31:54;;;;;;;19.43;7.47;;;;;;;-2.19;96.11;100651.63;6119577;28;20512;-69
2022/12/11 01:34:49;;;;;;;17.63;6.40;;;;;;;-2.01;97.54;100646.44;6120435;28;20324;-70
2022/12/11 01:37:45;;;;;;;17.67;6.85;;;;;;;-1.92;98.35;100658.19;6119820;28;20142;-70
2022/12/11 01:40:48;;;;;;;23.40;9.05;;;;;;;-2.07;98.06;100648.50;6120436;28;20470;-70
2022/12/11 01:44:00;;;;;;;24.83;7.82;;;;;;;-2.08;96.63;100654.59;6123085;28;20024;-68
2022/12/11 01:46:56;;;;;;;25.25;8.82;;;;;;;-2.27;96.02;100644.19;6124685;28;20037;-69
2022/12/11 01:49:51;;;;;;;24.00;7.40;;;;;;;-2.09;97.16;100660.72;6119127;28;20494;-68
2022/12/11 01:52:47;;;;;;;24.40;9.87;;;;;;;-2.18;96.45;100658.50;6114871;28;20270;-69
2022/12/11 01:55:44;;;;;;;30.65;9.02;;;;;;;-2.18;97.30;100658.50;6124061;28;20040;-68
2022/12/11 01:58:45;;;;;;;24.73;8.80;;;;;;;-2.34;97.14;100644.50;6124192;28;20115;-68
2022/12/11 02:01:50;;;;;;;25.15;8.20;;;;;;;-2.27;96.73;100658.91;6106835;28;20028;-68
2022/12/11 02:04:46;;;;;;;25.25;8.00;;;;;;;-2.41;97.02;100641.31;6106124;28;20485;-69
2022/12/11 02:07:45;;;;;;;24.45;8.45;;;;;;;-2.32;97.16;100655.66;6123853;28;20036;-69
2022/12/11 02:11:07;;;;;;;20.85;8.02;;;;;;;-2.38;97.38;100640.34;6125230;28;20393;-68
2022/12/11 02:14:04;;;;;;;22.05;8.00;;;;;;;-2.30;96.95;100665.06;6105622;28;20043;-68
2022/12/11 02:17:13;;;;;;;23.25;8.23;;;;;;;-2.30;97.37;100659.88;6105747;28;20146;-68
2022/12/11 02:20:22;;;;;;;18.88;6.63;;;;;;;-2.28;96.83;100663.25;6122390;28;20028;-69
2022/12/11 02:23:31;;;;;;;24.13;8.63;;;;;;;-2.34;97.26;100660.09;6122802;28;20037;-70
2022/12/11 02:26:42;;;;;;;23.98;8.95;;;;;;;-2.38;96.62;100654.19;6123705;28;20048;-69
2022/12/11 02:29:44;;;;;;;23.67;8.18;;;;;;;-2.45;96.52;100644.97;6105293;28;20024;-68
2022/12/11 02:32:56;;;;;;;25.38;7.82;;;;;;;-2.54;96.68;100634.97;6104809;28;20040;-67
2022/12/11 02:35:52;;;;;;;27.08;7.57;;;;;;;-2.42;95.95;100656.06;6105066;28;20039;-67
2022/12/11 02:38:49;;;;;;;19.35;6.63;;;;;;;-2.48;95.54;100637.31;6123279;28;20029;-68
2022/12/11 02:41:50;;;;;;;24.90;8.30;;;;;;;-2.45;96.13;100630.22;6104305;28;20039;-68
2022/12/11 02:44:46;;;;;;;21.85;6.97;;;;;;;-2.24;96.50;100653.59;6123654;28;20028;-69
2022/12/11 02:47:43;;;;;;;23.55;8.27;;;;;;;-2.32;97.13;100656.53;6123093;28;20028;-69
2022/12/11 02:50:43;;;;;;;24.50;7.38;;;;;;;-2.34;96.63;100644.50;6093696;28;20123;-68
2022/12/11 02:53:40;;;;;;;23.40;7.35;;;;;;;-2.36;96.93;100646.34;6086408;28;20469;-69
2022/12/11 02:56:40;;;;;;;21.73;7.90;;;;;;;-2.32;96.50;100656.53;6101192;28;20037;-69
2022/12/11 02:59:37;;;;;;;17.90;7.53;;;;;;;-2.41;96.85;100637.00;6104893;28;20032;-68
2022/12/11 03:02:33;;;;;;;16.50;7.40;;;;;;;-2.46;96.27;100638.94;6104259;28;20571;-68
2022/12/11 03:05:28;;;;;;;22.70;8.70;;;;;;;-2.44;96.05;100637.13;6104570;28;20103;-68
2022/12/11 03:08:24;;;;;;;18.75;7.00;;;;;;;-2.26;96.24;100645.03;6116628;28;20112;-67
2022/12/11 03:11:19;;;;;;;21.17;7.13;;;;;;;-2.30;95.97;100641.72;6122593;28;20039;-68
2022/12/11 03:14:14;;;;;;;19.33;7.87;;;;;;;-2.36;96.78;100628.16;6121854;28;20040;-70
2022/12/11 03:17:32;;;;;;;20.50;7.70;;;;;;;-2.35;96.63;100645.41;6122319;28;20077;-69
2022/12/11 03:20:43;;;;;;;15.48;5.47;;;;;;;-2.52;95.45;100634.00;6113767;28;20362;-67
2022/12/11 03:23:47;;;;;;;20.60;7.10;;;;;;;-2.48;95.24;100639.91;6103232;28;20071;-69
2022/12/11 03:26:47;;;;;;;19.40;6.82;;;;;;;-2.48;95.27;100634.72;6104306;28;20033;-68
2022/12/11 03:29:53;;;;;;;22.60;7.32;;;;;;;-2.37;96.68;100642.06;6104653;28;20032;-69
2022/12/11 03:32:51;;;;;;;19.10;6.78;;;;;;;-2.41;96.00;100637.00;6102815;28;20039;-67
2022/12/11 03:35:55;;;;;;;21.10;6.68;;;;;;;-2.44;95.65;100626.72;6121903;28;20469;-68
2022/12/11 03:39:05;;;;;;;20.67;7.55;;;;;;;-2.39;95.45;100641.28;6103833;28;20033;-68
2022/12/11 03:42:01;;;;;;;24.23;7.15;;;;;;;-2.22;95.87;100638.78;6103148;28;20047;-68
2022/12/11 03:44:57;;;;;;;17.08;5.95;;;;;;;-2.20;96.47;100644.75;6103863;28;20036;-68
2022/12/11 03:47:55;;;;;;;23.98;6.88;;;;;;;-2.16;96.77;100633.31;6103727;28;20037;-69
2022/12/11 03:50:51;;;;;;;19.45;7.13;;;;;;;-2.29;96.38;100640.81;6121731;28;20028;-69
2022/12/11 03:53:46;;;;;;;24.75;7.47;;;;;;;-2.39;95.00;100638.69;6111137;28;20029;-69
2022/12/11 03:56:43;;;;;;;20.38;7.07;;;;;;;-2.57;94.69;100628.19;6100336;28;20078;-71
2022/12/11 03:59:38;;;;;;;23.85;8.15;;;;;;;-2.59;95.50;100636.94;6092355;28;20036;-70
2022/12/11 04:02:34;;;;;;;22.80;7.23;;;;;;;-2.62;95.41;100626.69;6120803;28;20033;-70
2022/12/11 04:05:29;;;;;;;21.37;7.67;;;;;;;-2.50;95.24;100642.56;6119480;28;20055;-70
2022/12/11 04:08:24;;;;;;;19.77;7.80;;;;;;;-2.59;95.30;100639.53;6121308;28;20267;-70
2022/12/11 04:11:34;;;;;;;19.48;6.22;;;;;;;-2.64;94.96;100634.53;6120866;28;20033;-70
2022/12/11 04:24:14;;;;;;;22.30;7.40;;;;;;;-2.61;95.20;100628.38;6119764;28;20033;-68
2022/12/11 04:27:09;;;;;;;21.50;7.40;;;;;;;-2.50;95.09;100647.75;6121001;28;20461;-67
2022/12/11 04:30:08;;;;;;;22.83;7.53;;;;;;;-2.64;95.85;100631.97;6103265;28;20060;-68
2022/12/11 04:33:03;;;;;;;18.27;6.57;;;;;;;-2.45;96.30;100634.59;6120062;28;20021;-68
2022/12/11 04:35:59;;;;;;;19.50;6.35;;;;;;;-2.42;96.27;100645.66;6121080;28;20044;-71
2022/12/11 04:38:54;;;;;;;21.23;7.22;;;;;;;-2.52;95.13;100639.19;6102818;28;20092;-71
2022/12/11 04:41:50;;;;;;;16.03;5.17;;;;;;;-2.58;95.03;100634.25;6120659;28;20040;-68
2022/12/11 04:44:45;;;;;;;19.65;6.78;;;;;;;-2.64;94.81;100639.75;6120659;28;20481;-69
2022/12/11 04:47:41;;;;;;;21.20;6.27;;;;;;;-2.62;94.62;100635.31;6120648;28;20036;-69
2022/12/11 04:50:36;;;;;;;17.77;6.45;;;;;;;-2.55;94.81;100639.31;6109985;28;20314;-69
2022/12/11 04:53:31;;;;;;;19.27;5.87;;;;;;;-2.59;94.15;100640.38;6117534;28;20041;-69
2022/12/11 04:56:26;;;;;;;20.47;7.97;;;;;;;-2.54;95.05;100624.59;6120289;28;20346;-70
2022/12/11 04:59:22;;;;;;;25.40;8.13;;;;;;;-2.67;94.92;100633.81;6120677;28;20031;-70
2022/12/11 05:02:17;;;;;;;24.80;8.13;;;;;;;-2.69;95.89;100627.88;6119977;28;20469;-68
2022/12/11 05:05:13;;;;;;;20.73;7.33;;;;;;;-2.73;95.74;100619.38;6120615;28;20040;-70
2022/12/11 05:08:08;;;;;;;25.38;7.15;;;;;;;-2.69;95.50;100614.91;6119910;28;20033;-69
2022/12/11 05:11:06;;;;;;;19.60;6.47;;;;;;;-2.57;96.57;100637.72;6120572;28;20132;-69
2022/12/11 05:14:01;;;;;;;20.55;7.90;;;;;;;-2.65;96.27;100622.47;6120158;28;20425;-69
2022/12/11 05:16:59;;;;;;;21.90;6.40;;;;;;;-2.67;96.38;100645.06;6121416;28;20037;-69
2022/12/11 05:19:55;;;;;;;20.70;6.90;;;;;;;-2.61;96.53;100634.38;6125446;28;20465;-70
2022/12/11 05:22:50;;;;;;;20.43;7.77;;;;;;;-2.72;96.41;100630.59;6123278;28;20036;-70
2022/12/11 05:25:51;;;;;;;20.07;6.23;;;;;;;-2.69;96.06;100633.88;6130186;28;20043;-70
2022/12/11 05:28:50;;;;;;;18.80;8.15;;;;;;;-2.81;96.29;100618.00;6127164;28;20470;-69
2022/12/11 05:31:45;;;;;;;21.17;6.55;;;;;;;-2.78;95.90;100631.69;6126884;28;20431;-70
2022/12/11 05:34:41;;;;;;;22.73;7.00;;;;;;;-2.82;96.23;100629.25;6124369;28;20082;-68
2022/12/11 05:37:36;;;;;;;20.43;7.97;;;;;;;-2.87;97.21;100611.31;6124651;28;20029;-71
2022/12/11 05:40:31;;;;;;;21.88;7.50;;;;;;;-2.86;97.31;100633.75;6106651;28;20081;-68
2022/12/11 05:43:28;;;;;;;23.67;8.00;;;;;;;-2.95;97.58;100628.94;6123991;28;20155;-69
2022/12/11 05:46:25;;;;;;;16.58;7.43;;;;;;;-2.80;98.16;100623.09;6106759;28;20048;-70
2022/12/11 05:49:21;;;;;;;23.88;7.32;;;;;;;-2.78;97.45;100620.47;6123591;28;20508;-70
2022/12/11 05:52:16;;;;;;;20.10;7.40;;;;;;;-2.91;98.04;100616.69;6110808;28;20115;-68
2022/12/11 05:55:11;;;;;;;19.70;6.77;;;;;;;-2.96;97.05;100613.47;6124430;28;20104;-70
2022/12/11 05:58:07;;;;;;;16.93;5.80;;;;;;;-3.01;96.16;100613.63;6123689;28;20492;-68
2022/12/11 06:01:09;;;;;;;15.60;5.50;;;;;;;-2.87;96.53;100613.91;6124341;28;20262;-69
2022/12/11 06:04:06;;;;;;;24.10;7.32;;;;;;;-2.88;96.17;100635.53;6122975;28;20503;-69
2022/12/11 06:07:02;;;;;;;15.25;5.55;;;;;;;-2.96;95.90;100619.47;6123864;28;20054;-70
2022/12/11 06:09:57;;;;;;;17.08;4.47;;;;;;;-2.89;96.09;100620.91;6124087;28;20028;-70
2022/12/11 06:12:52;;;;;;;16.33;5.77;;;;;;;-2.94;96.35;100622.84;6122872;28;20074;-70
2022/12/11 06:15:48;;;;;;;19.10;7.37;;;;;;;-2.75;96.46;100621.19;6123382;28;20090;-69
2022/12/11 06:18:44;;;;;;;31.58;10.00;;;;;;;-2.78;96.58;100621.31;6123238;28;20428;-70
2022/12/11 06:21:39;;;;;;;15.88;6.55;;;;;;;-2.85;95.90;100612.09;6123791;28;20496;-70
2022/12/11 06:24:34;;;;;;;21.00;6.90;;;;;;;-2.94;95.73;100599.53;6122921;28;20037;-69
2022/12/11 06:27:30;;;;;;;14.83;5.70;;;;;;;-2.92;94.97;100602.03;6123050;28;20043;-68
2022/12/11 06:30:25;;;;;;;13.60;4.47;;;;;;;-2.96;93.38;100611.69;6123818;28;20296;-70
2022/12/11 06:33:20;;;;;;;14.87;5.23;;;;;;;-2.84;93.77;100608.59;6123054;28;20029;-70
2022/12/11 06:36:18;;;;;;;19.93;5.33;;;;;;;-2.88;92.85;100607.00;6123201;28;20056;-69
2022/12/11 06:39:13;;;;;;;15.27;6.57;;;;;;;-2.94;93.50;100615.06;6105769;28;20538;-70
2022/12/11 06:42:08;;;;;;;20.60;6.23;;;;;;;-2.90;93.76;100610.59;6122436;28;20032;-70
2022/12/11 06:45:04;;;;;;;13.43;5.33;;;;;;;-2.79;94.24;100621.34;6123466;28;20040;-69
2022/12/11 06:47:59;;;;;;;18.35;6.85;;;;;;;-2.92;93.85;100615.84;6123364;28;20036;-70
2022/12/11 06:50:55;;;;;;;17.60;5.60;;;;;;;-2.90;93.93;100620.97;6122517;28;20033;-69
2022/12/11 06:53:55;;;;;;;17.27;5.03;;;;;;;-2.94;93.58;100619.41;6121484;28;20032;-69
2022/12/11 06:56:50;;;;;;;14.20;4.90;;;;;;;-2.92;93.51;100622.78;6122800;28;20461;-68
2022/12/11 06:59:45;;;;;;;12.60;4.87;;;;;;;-3.13;94.00;100611.56;6110251;28;20033;-68
2022/12/11 07:02:40;;;;;;;18.17;5.17;;;;;;;-2.90;93.04;100631.34;6086147;28;20048;-70
2022/12/11 07:05:36;;;;;;;16.67;5.53;;;;;;;-2.98;92.94;100621.28;6111820;28;20044;-69
2022/12/11 07:08:31;;;;;;;18.90;4.60;;;;;;;-2.91;92.98;100630.50;6110713;28;20466;-69
2022/12/11 07:11:26;;;;;;;19.00;6.37;;;;;;;-2.94;92.90;100630.63;6124734;28;20116;-70
2022/12/11 07:14:22;;;;;;;15.52;5.45;;;;;;;-2.96;92.93;100634.22;6121030;28;20035;-69
2022/12/11 07:17:17;;;;;;;18.07;6.27;;;;;;;-2.97;93.14;100635.94;6116412;28;20037;-69
2022/12/11 07:20:12;;;;;;;15.70;5.53;;;;;;;-2.90;93.28;100649.50;6102719;28;20029;-68
2022/12/11 07:23:08;;;;;;;14.53;4.93;;;;;;;-2.92;93.06;100654.75;6121710;28;20521;-68
2022/12/11 07:26:04;;;;;;;16.53;5.23;;;;;;;-2.95;93.02;100641.91;6121504;28;20432;-69
2022/12/11 07:29:00;;;;;;;14.90;4.32;;;;;;;-2.89;93.83;100646.84;6121261;28;20028;-69
2022/12/11 07:31:55;;;;;;;15.77;5.43;;;;;;;-2.98;94.50;100639.44;6118565;28;20036;-70
2022/12/11 07:34:50;;;;;;;17.50;7.03;;;;;;;-2.97;95.34;100640.28;6120299;28;20445;-69
2022/12/11 07:37:46;;;;;;;22.03;5.87;;;;;;;-2.92;96.15;100654.75;6113386;28;20025;-68
2022/12/11 07:40:41;;;;;;;18.57;6.70;;;;;;;-3.02;96.74;100635.28;6118245;28;20024;-69
2022/12/11 07:43:36;;;;;;;19.00;6.53;;;;;;;-2.95;96.94;100644.50;6121320;28;20287;-68
2022/12/11 07:46:32;;;;;;;22.87;7.57;;;;;;;-2.88;96.67;100656.28;6120647;28;20033;-70
2022/12/11 07:49:28;;;;;;;17.55;5.18;;;;;;;-2.89;96.25;100653.78;6115323;28;20746;-68
2022/12/11 07:52:23;;;;;;;17.77;5.95;;;;;;;-2.86;95.95;100640.69;6108512;28;20032;-69
2022/12/11 07:55:18;;;;;;;18.63;7.13;;;;;;;-2.92;94.80;100649.56;6102830;28;20077;-67
2022/12/11 07:58:13;;;;;;;25.70;8.77;;;;;;;-2.96;95.41;100648.00;6114586;28;20103;-67
2022/12/11 08:01:20;;;;;;;23.93;7.53;;;;;;;-2.84;95.97;100655.28;6119898;28;20443;-68
2022/12/11 08:04:15;;;;;;;15.65;5.25;;;;;;;-2.81;96.57;100643.94;6102171;28;20124;-69
2022/12/11 08:07:11;;;;;;;17.87;6.57;;;;;;;-2.88;96.52;100643.31;6118386;28;20029;-66
2022/12/11 08:10:07;;;;;;;17.88;5.90;;;;;;;-3.01;96.63;100629.19;6119546;28;20024;-68
2022/12/11 08:13:02;;;;;;;20.02;7.03;;;;;;;-2.89;97.34;100644.25;6119894;28;20427;-68
2022/12/11 08:15:58;;;;;;;18.70;5.33;;;;;;;-2.76;97.40;100639.38;6127723;28;20029;-67
2022/12/11 08:18:53;;;;;;;22.48;6.88;;;;;;;-2.85;96.82;100632.84;6121543;28;20032;-68
2022/12/11 08:21:48;;;;;;;18.42;6.25;;;;;;;-2.75;96.30;100646.28;6118503;28;20037;-67
2022/12/11 08:24:45;;;;;;;22.40;4.97;;;;;;;-2.74;96.05;100650.53;6120935;28;20032;-68
2022/12/11 08:27:41;;;;;;;13.80;4.57;;;;;;;-2.74;95.97;100646.19;6116213;28;20436;-69
2022/12/11 08:30:38;;;;;;;16.50;6.25;;;;;;;-2.73;96.63;100655.69;6128057;28;20086;-67
2022/12/11 08:33:35;;;;;;;24.23;7.55;;;;;;;-2.76;96.84;100644.56;6121144;28;20029;-69
2022/12/11 08:36:30;;;;;;;18.75;5.85;;;;;;;-2.92;95.81;100626.22;6113149;28;20525;-66
2022/12/11 08:39:26;;;;;;;12.40;5.93;;;;;;;-2.83;93.88;100646.59;6099869;28;20032;-67
2022/12/11 08:42:22;;;;;;;15.23;5.55;;;;;;;-2.85;93.36;100643.22;6121275;28;20029;-69
2022/12/11 08:45:17;;;;;;;15.53;6.20;;;;;;;-2.81;93.16;100652.56;6109874;28;20035;-68
2022/12/11 08:48:13;;;;;;;15.80;5.30;;;;;;;-2.73;93.19;100655.69;6115170;28;20033;-67
2022/12/11 08:51:14;;;;;;;17.25;5.75;;;;;;;-2.77;93.33;100637.72;6107802;28;20279;-68
2022/12/11 08:54:10;;;;;;;17.45;5.30;;;;;;;-2.78;93.50;100634.28;6117036;28;20040;-69
2022/12/11 08:57:05;;;;;;;15.73;5.13;;;;;;;-2.67;93.44;100652.84;6117154;28;20043;-69
2022/12/11 09:00:01;;;;;;;16.75;5.40;;;;;;;-2.51;93.33;100646.09;6109161;28;20029;-67
2022/12/11 09:02:56;;;;;;;15.13;6.23;;;;;;;-2.57;93.67;100628.19;6122497;28;20059;-67
2022/12/11 09:05:51;;;;;;;18.60;5.85;;;;;;;-2.50;91.68;100626.19;6127323;28;20270;-67
2022/12/11 09:08:48;;;;;;;21.70;6.47;;;;;;;-2.54;91.88;100640.19;6112913;28;20056;-67
2022/12/11 09:11:43;;;;;;;23.10;6.68;;;;;;;-2.61;92.20;100624.00;6131940;28;20039;-67
2022/12/11 09:14:39;;;;;;;16.23;4.97;;;;;;;-2.66;92.71;100619.94;6135691;28;20044;-66
2022/12/11 09:17:34;;;;;;;13.77;4.10;;;;;;;-2.63;91.79;100623.25;6126730;28;20485;-70
2022/12/11 09:20:29;;;;;;;17.07;5.83;;;;;;;-2.67;92.28;100618.25;6122737;28;20058;-71
2022/12/11 09:23:25;;;;;;;17.20;6.27;;;;;;;-2.57;92.42;100629.91;6124191;28;20309;-70
2022/12/11 09:26:22;;;;;;;19.30;5.17;;;;;;;-2.39;92.26;100628.31;6119144;28;20498;-70
2022/12/11 09:29:17;;;;;;;17.58;6.28;;;;;;;-2.66;90.99;100610.41;6122996;28;20278;-69
2022/12/11 09:32:12;;;;;;;17.33;5.93;;;;;;;-2.64;91.28;100608.59;6122287;28;20089;-70
2022/12/11 09:35:08;;;;;;;17.97;6.53;;;;;;;-2.56;90.90;100614.31;6114004;28;20436;-70
2022/12/11 09:38:03;;;;;;;14.93;5.13;;;;;;;-2.57;91.44;100620.38;6117886;28;20473;-69
2022/12/11 09:40:59;;;;;;;13.20;5.00;;;;;;;-2.43;90.94;100610.25;6112266;28;20076;-72
2022/12/11 09:44:06;;;;;;;15.90;4.78;;;;;;;-2.16;89.92;100609.94;6121444;28;20508;-73
2022/12/11 09:47:02;;;;;;;13.90;5.47;;;;;;;-1.74;88.03;100613.19;6096593;28;20039;-75
2022/12/11 09:50:09;;;;;;;19.35;7.22;;;;;;;-1.61;85.91;100614.31;6118193;28;20028;-76
2022/12/11 09:53:13;;;;;;;18.70;5.78;;;;;;;-1.31;84.92;100605.06;6126117;28;20753;-76
2022/12/11 09:56:08;;;;;;;20.45;6.70;;;;;;;-0.87;85.50;100605.44;6126647;28;20036;-74
2022/12/11 09:59:18;;;;;;;29.70;7.20;;;;;;;-0.43;84.56;100613.59;6126160;28;20503;-75
2022/12/11 10:02:21;;;;;;;18.33;5.45;;;;;;;-0.12;80.29;100599.81;6110055;28;20036;-75
2022/12/11 10:05:31;;;;;;;15.00;5.35;;;;;;;0.34;77.97;100606.00;6120532;28;20258;-73
2022/12/11 10:09:11;;;;;;;20.58;5.47;;;;;;;0.56;75.69;100601.28;6134200;28;20066;-70
2022/12/11 10:12:15;;;;;;;18.58;5.10;;;;;;;0.57;75.88;100592.53;6103175;28;20044;-72
2022/12/11 10:15:25;;;;;;;12.05;4.88;;;;;;;0.55;74.54;100586.53;6126112;28;20039;-72
2022/12/11 10:18:22;;;;;;;15.25;4.30;;;;;;;0.38;73.36;100561.41;6127355;22;20049;-73
2022/12/11 10:21:18;;;;;;;14.15;4.90;;;;;;;0.33;74.26;100573.84;6091552;28;20092;-73
2022/12/11 10:24:19;;;;;;;12.15;5.13;;;;;;;0.32;74.44;100576.56;6078836;28;20018;-73
2022/12/11 10:27:18;;;;;;;13.93;4.82;;;;;;;0.65;74.95;100585.13;6082128;28;20044;-73
2022/12/11 10:30:14;;;;;;;21.35;6.53;;;;;;;0.21;72.57;100571.94;6102088;28;20112;-75
2022/12/11 10:33:09;;;;;;;16.58;5.28;;;;;;;0.53;73.20;100571.00;6101153;28;20413;-73
2022/12/11 10:36:06;;;;;;;13.83;4.33;;;;;;;0.62;73.03;100561.81;6101023;28;20086;-74
2022/12/11 10:39:02;;;;;;;12.70;4.43;;;;;;;0.19;72.51;100565.13;6101343;28;20040;-75
2022/12/11 10:41:58;;;;;;;13.93;4.28;;;;;;;0.24;72.92;100561.34;6101815;28;20124;-73
2022/12/11 10:44:59;;;;;;;11.25;4.32;;;;;;;-0.05;73.98;100562.94;6102707;28;20426;-74
2022/12/11 10:48:03;;;;;;;11.52;4.30;;;;;;;0.15;75.54;100568.81;6099388;28;20075;-74
2022/12/11 10:51:03;;;;;;;12.82;4.13;;;;;;;0.25;74.30;100555.19;6081626;28;20041;-74
2022/12/11 10:54:08;;;;;;;15.55;4.93;;;;;;;0.18;73.77;100566.03;6100360;28;20037;-74
2022/12/11 10:57:05;;;;;;;13.73;4.30;;;;;;;-0.08;73.99;100567.44;6099701;28;20055;-74
2022/12/11 11:00:01;;;;;;;13.43;4.40;;;;;;;0.12;74.18;100566.38;6081396;28;20033;-73
2022/12/11 11:02:57;;;;;;;13.65;4.40;;;;;;;0.21;74.40;100568.50;6085740;28;20039;-74
2022/12/11 11:06:13;;;;;;;12.48;4.43;;;;;;;0.15;73.65;100555.78;6100758;28;20386;-75
2022/12/11 11:09:28;;;;;;;11.75;4.18;;;;;;;-0.10;74.48;100577.97;6098547;28;20029;-73
2022/12/11 11:12:26;;;;;;;15.60;4.47;;;;;;;-0.25;75.77;100570.97;6093012;28;20029;-74
2022/12/11 11:15:26;;;;;;;18.30;6.15;;;;;;;-0.84;76.24;100575.81;6097430;28;20033;-73
2022/12/11 11:18:25;;;;;;;14.50;4.97;;;;;;;-0.83;77.25;100575.75;6099373;28;20045;-73
2022/12/11 11:21:22;;;;;;;12.93;6.28;;;;;;;-1.23;78.43;100563.06;6081031;28;20029;-73
2022/12/11 11:24:31;;;;;;;11.85;4.82;;;;;;;-1.24;80.15;100550.97;6080408;28;20099;-72
2022/12/11 11:27:34;;;;;;;12.65;4.03;;;;;;;-1.52;81.44;100574.84;6098762;28;20064;-72
2022/12/11 11:30:36;;;;;;;14.98;5.50;;;;;;;-1.36;80.69;100578.41;6114111;28;20048;-73
2022/12/11 11:33:33;;;;;;;13.45;4.93;;;;;;;-1.45;80.34;100568.47;6079892;28;20496;-73
2022/12/11 11:36:32;;;;;;;10.90;4.57;;;;;;;-1.54;80.56;100558.50;6080660;28;20071;-73
2022/12/11 11:39:33;;;;;;;12.98;4.35;;;;;;;-1.74;80.72;100557.78;6098366;28;20043;-72
2022/12/11 11:42:57;;;;;;;13.02;4.18;;;;;;;-1.69;80.99;100561.84;6079533;28;20037;-72
2022/12/11 11:46:01;;;;;;;15.35;4.93;;;;;;;-1.69;83.04;100541.06;6068807;28;20036;-73
2022/12/11 11:49:06;;;;;;;15.48;5.70;;;;;;;-1.67;82.50;100557.41;6080770;28;20028;-70
2022/12/11 11:52:10;;;;;;;15.02;5.03;;;;;;;-1.59;83.12;100557.88;6097631;28;20033;-71
2022/12/11 11:55:41;;;;;;;18.63;10.88;;;;;;;-1.58;81.35;100556.13;6080386;28;20075;-73
2022/12/11 11:58:46;;;;;;;14.18;4.38;;;;;;;-1.67;81.04;100552.22;6097852;28;20055;-73
2022/12/11 12:01:42;;;;;;;13.93;6.13;;;;;;;-1.77;81.18;100556.16;6080229;28;20024;-73
2022/12/11 12:04:37;;;;;;;11.48;4.03;;;;;;;-1.73;83.26;100546.44;6097251;28;20132;-71
2022/12/11 12:07:58;;;;;;;14.93;5.17;;;;;;;-1.77;81.37;100555.31;6097396;28;20043;-73
2022/12/11 12:11:18;;;;;;;14.63;4.38;;;;;;;-1.90;81.29;100549.84;6112861;28;20060;-73
2022/12/11 12:14:38;;;;;;;12.60;4.50;;;;;;;-1.74;81.93;100556.03;6097093;28;20060;-73
2022/12/11 12:17:50;;;;;;;14.68;3.30;;;;;;;-1.70;82.62;100549.75;6079579;28;20033;-72
2022/12/11 12:20:58;;;;;;;13.77;3.60;;;;;;;-1.68;81.24;100553.13;6080092;28;20059;-74
2022/12/11 12:24:07;;;;;;;12.70;4.25;;;;;;;-1.68;82.13;100534.06;6078961;28;20036;-72
2022/12/11 12:27:12;;;;;;;11.48;4.22;;;;;;;-1.64;81.89;100546.88;6072497;28;20040;-72
2022/12/11 12:30:11;;;;;;;15.57;4.93;;;;;;;-1.67;81.69;100536.63;6097520;28;20124;-73
2022/12/11 12:33:16;;;;;;;11.27;4.90;;;;;;;-1.72;83.14;100541.19;6079243;28;20534;-73
2022/12/11 12:36:27;;;;;;;14.95;4.70;;;;;;;-1.64;83.01;100536.47;6097197;28;20033;-72
2022/12/11 12:39:37;;;;;;;15.18;5.43;;;;;;;-1.61;82.36;100536.34;6079723;28;20041;-72
2022/12/11 12:42:45;;;;;;;17.60;4.95;;;;;;;-1.62;82.56;100545.03;6096528;28;20037;-71
2022/12/11 12:46:00;;;;;;;13.10;5.03;;;;;;;-1.63;83.69;100525.13;6097644;28;20569;-71
2022/12/11 12:48:57;;;;;;;13.63;4.75;;;;;;;-1.61;82.54;100531.13;6079491;28;20083;-73
2022/12/11 12:51:53;;;;;;;12.27;6.00;;;;;;;-1.73;80.38;100518.72;6078840;28;20464;-71
2022/12/11 12:58:06;;;;;;;18.27;6.70;;;;;;;-1.79;79.51;100500.81;6082355;28;20148;-72
2022/12/11 13:01:13;;;;;;;10.88;3.53;;;;;;;-1.60;79.99;100530.19;6097137;28;20041;-72
2022/12/11 13:04:27;;;;;;;14.35;4.82;;;;;;;-1.78;79.75;100518.09;6078885;28;20580;-71
2022/12/11 13:07:28;;;;;;;15.25;4.30;;;;;;;-1.70;79.35;100528.97;6096797;28;20037;-72
2022/12/11 13:10:31;;;;;;;14.40;4.70;;;;;;;-1.69;79.71;100533.25;6079824;28;20090;-74
2022/12/11 13:13:46;;;;;;;15.32;4.95;;;;;;;-1.66;80.58;100516.69;6096496;28;20106;-72
2022/12/11 13:16:43;;;;;;;13.80;4.30;;;;;;;-1.81;80.09;100503.50;6079457;28;20041;-72
2022/12/11 13:19:39;;;;;;;12.25;4.65;;;;;;;-1.76;79.88;100516.25;6095539;28;20067;-71
2022/12/11 13:22:34;;;;;;;15.30;5.37;;;;;;;-1.87;79.57;100500.34;6095235;28;20076;-71
2022/12/11 13:25:31;;;;;;;16.77;4.87;;;;;;;-1.82;79.78;100498.34;6096909;28;20021;-74
2022/12/11 13:28:46;;;;;;;12.18;5.22;;;;;;;-1.81;79.86;100518.25;6096745;28;20041;-72
2022/12/11 13:31:44;;;;;;;13.68;5.40;;;;;;;-1.97;80.49;100496.50;6096819;28;20025;-72
2022/12/11 13:34:41;;;;;;;10.38;3.50;;;;;;;-1.89;80.20;100525.56;6095585;28;20025;-71
2022/12/11 13:37:40;;;;;;;13.13;4.47;;;;;;;-1.91;79.64;100537.78;6077075;28;20045;-74
2022/12/11 13:40:38;;;;;;;11.88;4.63;;;;;;;-2.05;80.44;100524.59;6099235;28;20440;-72
2022/12/11 13:43:34;;;;;;;14.15;4.22;;;;;;;-2.16;81.49;100506.06;6100016;28;20466;-73
2022/12/11 13:46:34;;;;;;;17.47;6.57;;;;;;;-1.83;80.28;100528.72;6100169;28;20029;-72
2022/12/11 13:49:34;;;;;;;14.48;4.75;;;;;;;-1.83;79.94;100525.28;6082395;28;20017;-73
2022/12/11 13:52:30;;;;;;;16.58;4.85;;;;;;;-2.01;81.39;100510.56;6099916;28;20461;-72
2022/12/11 13:55:31;;;;;;;10.75;4.75;;;;;;;-2.07;83.40;100529.88;6099635;28;20039;-73